createdAt,value
2018-12-17T00:01:21.516Z,22.97
2018-12-17T00:03:49.971Z,23.17
2018-12-17T00:06:18.576Z,22.77
2018-12-17T00:08:47.051Z,22.83
2018-12-17T00:11:16.275Z,23.10
2018-12-17T00:13:44.842Z,22.73
2018-12-17T00:16:13.363Z,23.70
2018-12-17T00:18:41.823Z,23.53
2018-12-17T00:21:10.323Z,23.17
2018-12-17T00:23:38.792Z,23.03
2018-12-17T00:26:09.532Z,22.63
2018-12-17T00:28:38.010Z,23.67
2018-12-17T00:31:06.495Z,23.13
2018-12-17T00:33:34.939Z,22.37
2018-12-17T00:36:03.542Z,23.27
2018-12-17T00:38:31.992Z,24.47
2018-12-17T00:41:00.482Z,23.17
2018-12-17T00:43:29.183Z,24.53
2018-12-17T00:45:57.833Z,24.27
2018-12-17T00:48:26.442Z,26.33
2018-12-17T00:50:55.057Z,25.77
2018-12-17T00:53:23.535Z,26.43
2018-12-17T00:55:52.037Z,25.23
2018-12-17T00:58:20.480Z,25.33
2018-12-17T01:00:48.972Z,24.63
2018-12-17T01:03:17.458Z,25.40
2018-12-17T01:05:45.995Z,24.03
2018-12-17T01:08:14.475Z,25.50
2018-12-17T01:10:42.963Z,24.97
2018-12-17T01:13:11.418Z,26.77
2018-12-17T01:15:39.916Z,27.23
2018-12-17T01:18:08.412Z,25.10
2018-12-17T01:20:36.952Z,25.63
2018-12-17T01:23:05.473Z,26.73
2018-12-17T01:25:34.212Z,25.50
2018-12-17T01:28:02.680Z,27.07
2018-12-17T01:30:31.159Z,26.33
2018-12-17T01:32:59.624Z,27.43
2018-12-17T01:35:28.171Z,28.27
2018-12-17T01:37:56.610Z,29.63
2018-12-17T01:40:25.117Z,29.37
2018-12-17T01:42:53.587Z,29.23
2018-12-17T01:45:22.093Z,29.60
2018-12-17T01:47:50.556Z,28.97
2018-12-17T01:50:19.036Z,30.37
2018-12-17T01:52:47.479Z,28.40
2018-12-17T01:55:15.935Z,28.67
2018-12-17T01:57:44.419Z,30.60
2018-12-17T02:00:12.915Z,27.73
2018-12-17T02:02:41.438Z,28.53
2018-12-17T02:05:09.912Z,28.00
2018-12-17T02:07:38.413Z,28.50
2018-12-17T02:10:07.039Z,27.60
2018-12-17T02:12:35.534Z,27.73
2018-12-17T02:15:04.484Z,27.10
2018-12-17T02:17:32.993Z,28.40
2018-12-17T02:20:01.490Z,26.43
2018-12-17T02:22:29.967Z,27.90
2018-12-17T02:24:58.420Z,26.57
2018-12-17T02:27:26.916Z,27.20
2018-12-17T02:29:55.410Z,26.47
2018-12-17T02:32:23.888Z,25.47
2018-12-17T02:34:52.339Z,25.23
2018-12-17T02:37:20.835Z,25.47
2018-12-17T02:39:49.318Z,25.50
2018-12-17T02:42:17.891Z,25.90
2018-12-17T02:44:46.350Z,25.87
2018-12-17T02:47:14.858Z,25.33
2018-12-17T02:49:43.339Z,24.70
2018-12-17T02:52:11.850Z,25.20
2018-12-17T02:54:40.810Z,25.70
2018-12-17T02:57:09.291Z,24.77
2018-12-17T02:59:37.749Z,25.00
2018-12-17T03:02:06.252Z,25.67
2018-12-17T03:04:34.692Z,24.03
2018-12-17T03:07:03.208Z,25.40
2018-12-17T03:09:31.658Z,24.60
2018-12-17T03:12:00.159Z,25.40
2018-12-17T03:14:28.665Z,25.47
2018-12-17T03:16:57.150Z,26.23
2018-12-17T03:19:25.638Z,25.67
2018-12-17T03:21:54.166Z,25.60
2018-12-17T03:24:22.653Z,25.17
2018-12-17T03:26:51.302Z,26.23
2018-12-17T03:29:19.802Z,25.30
2018-12-17T03:33:12.677Z,24.40
2018-12-17T03:35:41.168Z,23.83
2018-12-17T03:38:09.654Z,26.43
2018-12-17T03:40:38.088Z,25.90
2018-12-17T03:43:06.614Z,25.80
2018-12-17T03:45:35.080Z,26.77
2018-12-17T03:48:03.765Z,27.17
2018-12-17T03:50:32.244Z,25.97
2018-12-17T03:53:00.733Z,27.37
2018-12-17T03:55:29.173Z,26.03
2018-12-17T03:57:57.664Z,26.17
2018-12-17T04:00:26.128Z,26.30
2018-12-17T04:02:54.656Z,25.53
2018-12-17T04:05:23.183Z,25.50
2018-12-17T04:07:51.663Z,26.93
2018-12-17T04:10:20.138Z,28.10
2018-12-17T04:12:48.979Z,26.23
2018-12-17T04:15:17.514Z,26.10
2018-12-17T04:17:45.965Z,28.87
2018-12-17T04:20:14.399Z,26.83
2018-12-17T04:22:42.902Z,27.17
2018-12-17T04:25:11.394Z,28.50
2018-12-17T04:27:39.885Z,26.87
2018-12-17T04:30:08.605Z,27.43
2018-12-17T04:32:37.123Z,26.60
2018-12-17T04:35:06.077Z,28.63
2018-12-17T04:37:34.590Z,28.93
2018-12-17T04:40:03.181Z,26.73
2018-12-17T04:42:31.668Z,28.20
2018-12-17T04:45:00.112Z,27.73
2018-12-17T04:47:28.630Z,27.97
2018-12-17T04:49:57.088Z,28.93
2018-12-17T04:52:25.582Z,29.17
2018-12-17T04:54:54.139Z,29.57
2018-12-17T04:57:22.621Z,29.60
2018-12-17T04:59:51.108Z,29.50
2018-12-17T05:02:19.667Z,30.27
2018-12-17T05:04:48.223Z,28.00
2018-12-17T05:07:16.704Z,27.30
2018-12-17T05:09:45.164Z,27.57
2018-12-17T05:12:13.643Z,27.13
2018-12-17T05:14:42.116Z,27.13
2018-12-17T05:17:10.620Z,29.27
2018-12-17T05:19:39.064Z,29.17
2018-12-17T05:22:07.563Z,27.73
2018-12-17T05:24:36.017Z,28.03
2018-12-17T05:27:04.521Z,28.53
2018-12-17T05:29:32.999Z,28.53
2018-12-17T05:32:01.501Z,28.40
2018-12-17T05:34:29.997Z,30.40
2018-12-17T05:36:58.479Z,31.23
2018-12-17T05:39:26.968Z,31.20
2018-12-17T05:41:55.467Z,32.80
2018-12-17T05:44:23.937Z,32.10
2018-12-17T05:46:52.445Z,32.20
2018-12-17T05:49:20.897Z,32.43
2018-12-17T05:51:49.434Z,32.43
2018-12-17T05:54:17.876Z,33.83
2018-12-17T05:56:46.353Z,32.63
2018-12-17T05:59:14.908Z,32.10
2018-12-17T06:01:43.444Z,33.27
2018-12-17T06:04:11.957Z,31.47
2018-12-17T06:06:40.446Z,31.87
2018-12-17T06:09:12.246Z,33.93
2018-12-17T06:11:40.984Z,33.90
2018-12-17T06:14:09.478Z,32.50
2018-12-17T06:16:37.945Z,32.93
2018-12-17T06:19:06.468Z,33.83
2018-12-17T06:21:34.938Z,33.90
2018-12-17T06:24:03.580Z,32.83
2018-12-17T06:26:32.018Z,34.53
2018-12-17T06:29:00.716Z,35.10
2018-12-17T06:31:29.873Z,34.87
2018-12-17T06:33:58.450Z,35.00
2018-12-17T06:36:26.963Z,32.93
2018-12-17T06:38:56.282Z,35.97
2018-12-17T06:41:24.924Z,40.73
2018-12-17T06:43:53.408Z,37.70
2018-12-17T06:46:21.858Z,35.47
2018-12-17T06:48:50.342Z,32.53
2018-12-17T06:51:21.135Z,35.17
2018-12-17T06:53:49.654Z,34.50
2018-12-17T06:56:18.100Z,35.33
2018-12-17T06:58:46.552Z,33.60
2018-12-17T07:01:15.007Z,34.07
2018-12-17T07:03:43.478Z,33.83
2018-12-17T07:06:11.912Z,34.63
2018-12-17T07:08:40.349Z,33.73
2018-12-17T07:11:08.779Z,34.17
2018-12-17T07:13:37.275Z,32.57
2018-12-17T07:16:05.844Z,36.30
2018-12-17T07:18:34.324Z,35.50
2018-12-17T07:21:02.764Z,34.80
2018-12-17T07:23:31.252Z,34.67
2018-12-17T07:25:59.708Z,35.43
2018-12-17T07:28:28.176Z,36.73
2018-12-17T07:30:56.621Z,35.80
2018-12-17T07:33:25.136Z,37.43
2018-12-17T07:35:53.593Z,34.87
2018-12-17T07:38:22.076Z,34.60
2018-12-17T07:40:50.510Z,34.80
2018-12-17T07:43:19.010Z,32.90
2018-12-17T07:45:47.450Z,34.03
2018-12-17T07:48:15.923Z,33.27
2018-12-17T07:50:44.674Z,33.33
2018-12-17T07:53:13.166Z,33.37
2018-12-17T07:55:41.635Z,32.60
2018-12-17T07:58:10.137Z,32.40
2018-12-17T08:00:38.667Z,32.10
2018-12-17T08:03:07.158Z,32.90
2018-12-17T08:05:35.601Z,33.57
2018-12-17T08:08:04.127Z,32.83
2018-12-17T08:10:32.601Z,31.77
2018-12-17T08:13:01.237Z,32.57
2018-12-17T08:15:29.744Z,34.17
2018-12-17T08:18:09.485Z,33.43
2018-12-17T08:20:38.000Z,31.80
2018-12-17T08:23:06.568Z,33.63
2018-12-17T08:25:35.051Z,33.20
2018-12-17T08:28:03.557Z,31.93
2018-12-17T08:30:32.008Z,32.97
2018-12-17T08:33:00.489Z,31.67
2018-12-17T08:35:29.000Z,29.67
2018-12-17T08:37:57.553Z,31.57
2018-12-17T08:40:26.001Z,31.90
2018-12-17T08:42:54.491Z,32.47
2018-12-17T08:45:22.948Z,30.90
2018-12-17T08:47:51.516Z,30.23
2018-12-17T08:50:20.121Z,31.13
2018-12-17T08:52:48.636Z,31.23
2018-12-17T08:55:17.095Z,30.07
2018-12-17T08:57:45.551Z,31.57
2018-12-17T09:00:14.278Z,30.53
2018-12-17T09:02:42.753Z,29.23
2018-12-17T09:05:11.379Z,30.00
2018-12-17T09:07:39.854Z,29.50
2018-12-17T09:10:08.927Z,30.60
2018-12-17T09:12:37.365Z,30.13
2018-12-17T09:15:06.225Z,31.53
2018-12-17T09:17:34.701Z,30.60
2018-12-17T09:20:03.363Z,30.33
2018-12-17T09:22:31.844Z,30.73
2018-12-17T09:25:00.427Z,31.03
2018-12-17T09:27:29.023Z,31.67
2018-12-17T09:29:57.492Z,31.77
2018-12-17T09:32:26.099Z,30.77
2018-12-17T09:34:54.610Z,31.73
2018-12-17T09:37:23.068Z,32.40
2018-12-17T09:39:51.582Z,32.27
2018-12-17T09:42:20.035Z,32.00
2018-12-17T09:44:48.530Z,32.53
2018-12-17T09:47:17.023Z,31.07
2018-12-17T09:49:45.502Z,31.07
2018-12-17T09:52:13.965Z,32.03
2018-12-17T09:54:42.430Z,32.47
2018-12-17T09:57:11.007Z,32.90
2018-12-17T09:59:39.544Z,32.73
2018-12-17T10:02:07.995Z,30.90
2018-12-17T10:04:36.458Z,30.10
2018-12-17T10:07:04.923Z,32.47
2018-12-17T10:09:33.392Z,32.50
2018-12-17T10:12:01.874Z,31.33
2018-12-17T10:14:30.427Z,31.80
2018-12-17T10:16:58.913Z,30.00
2018-12-17T10:19:27.456Z,31.83
2018-12-17T10:21:55.895Z,29.67
2018-12-17T10:24:24.367Z,31.73
2018-12-17T10:26:52.816Z,29.80
2018-12-17T10:29:21.312Z,30.60
2018-12-17T10:31:49.759Z,30.07
2018-12-17T10:34:18.271Z,29.10
2018-12-17T10:36:46.811Z,30.50
2018-12-17T10:39:15.306Z,29.47
2018-12-17T10:41:43.760Z,30.33
2018-12-17T10:44:12.226Z,30.50
2018-12-17T10:46:40.713Z,30.57
2018-12-17T10:49:09.147Z,34.20
2018-12-17T10:51:37.698Z,30.17
2018-12-17T10:54:06.206Z,33.63
2018-12-17T10:56:34.832Z,32.17
2018-12-17T10:59:03.336Z,33.17
2018-12-17T11:01:37.397Z,32.23
2018-12-17T11:04:13.636Z,31.47
2018-12-17T11:06:42.151Z,31.73
2018-12-17T11:09:10.927Z,30.43
2018-12-17T11:11:39.429Z,34.00
2018-12-17T11:14:07.926Z,30.60
2018-12-17T11:16:36.477Z,29.77
2018-12-17T11:19:04.932Z,31.23
2018-12-17T11:21:33.531Z,30.97
2018-12-17T11:24:01.990Z,32.50
2018-12-17T11:26:30.470Z,30.63
2018-12-17T11:28:58.944Z,32.73
2018-12-17T11:31:28.314Z,31.47
2018-12-17T11:33:56.792Z,34.73
2018-12-17T11:36:25.336Z,30.50
2018-12-17T11:38:53.785Z,34.43
2018-12-17T11:41:22.284Z,33.43
2018-12-17T11:43:50.719Z,34.80
2018-12-17T11:46:19.225Z,32.30
2018-12-17T11:48:48.044Z,32.63
2018-12-17T11:51:16.529Z,33.33
2018-12-17T11:53:44.988Z,31.87
2018-12-17T11:56:13.518Z,33.70
2018-12-17T11:58:41.986Z,32.93
2018-12-17T12:01:11.411Z,33.40
2018-12-17T12:03:42.298Z,32.70
2018-12-17T12:06:14.145Z,32.77
2018-12-17T12:08:41.271Z,40.30
2018-12-17T12:11:09.736Z,34.77
2018-12-17T12:13:38.246Z,31.10
2018-12-17T12:16:06.706Z,30.63
2018-12-17T12:18:35.172Z,32.53
2018-12-17T12:21:03.641Z,31.27
2018-12-17T12:23:32.124Z,33.20
2018-12-17T12:26:00.602Z,31.03
2018-12-17T12:28:29.099Z,32.50
2018-12-17T12:31:00.513Z,32.83
2018-12-17T12:33:28.069Z,33.40
2018-12-17T12:35:56.511Z,33.57
2018-12-17T12:38:25.420Z,33.67
2018-12-17T12:40:53.911Z,35.07
2018-12-17T12:43:22.408Z,33.70
2018-12-17T12:45:50.860Z,33.93
2018-12-17T12:48:19.339Z,36.40
2018-12-17T12:50:47.775Z,36.73
2018-12-17T12:53:16.372Z,35.77
2018-12-17T12:55:44.894Z,38.17
2018-12-17T12:59:37.866Z,37.90
2018-12-17T13:02:06.410Z,35.90
2018-12-17T13:04:34.915Z,35.00
2018-12-17T13:07:03.377Z,37.03
2018-12-17T13:09:31.906Z,36.13
2018-12-17T13:12:00.380Z,36.60
2018-12-17T13:14:28.910Z,36.17
2018-12-17T13:16:57.376Z,37.17
2018-12-17T13:19:25.851Z,35.40
2018-12-17T13:21:54.299Z,36.37
2018-12-17T13:24:22.773Z,36.07
2018-12-17T13:26:51.244Z,37.47
2018-12-17T13:29:19.727Z,37.33
2018-12-17T13:31:48.227Z,38.30
2018-12-17T13:34:16.708Z,37.93
2018-12-17T13:36:45.127Z,37.53
2018-12-17T13:39:13.620Z,36.77
2018-12-17T13:41:42.317Z,36.77
2018-12-17T13:44:10.891Z,35.63
2018-12-17T13:46:39.340Z,36.23
2018-12-17T13:49:07.950Z,38.27
2018-12-17T13:51:38.412Z,48.53
2018-12-17T13:54:07.092Z,40.07
2018-12-17T13:56:35.523Z,48.93
2018-12-17T13:59:04.207Z,47.00
2018-12-17T14:01:33.705Z,41.47
2018-12-17T14:04:02.301Z,46.87
2018-12-17T14:06:30.880Z,75.93
2018-12-17T14:08:59.335Z,74.93
2018-12-17T14:11:27.849Z,65.80
2018-12-17T14:13:56.335Z,78.57
2018-12-17T14:16:30.064Z,67.03
2018-12-17T14:19:03.704Z,44.17
2018-12-17T14:22:07.027Z,78.70
2018-12-17T14:24:35.628Z,102.50
2018-12-17T14:27:04.220Z,109.77
2018-12-17T14:29:32.723Z,68.50
2018-12-17T14:32:01.201Z,100.43
2018-12-17T14:34:29.703Z,43.77
2018-12-17T14:36:58.175Z,48.13
2018-12-17T14:39:26.627Z,38.37
2018-12-17T14:41:55.121Z,37.90
2018-12-17T14:44:28.794Z,35.63
2018-12-17T14:46:59.699Z,34.47
2018-12-17T14:49:28.332Z,36.70
2018-12-17T14:51:56.832Z,39.23
2018-12-17T14:54:25.399Z,36.03
2018-12-17T14:56:53.897Z,35.67
2018-12-17T14:59:22.365Z,36.10
2018-12-17T15:01:50.870Z,37.23
2018-12-17T15:04:20.348Z,35.70
2018-12-17T15:06:48.842Z,35.53
2018-12-17T15:09:17.303Z,36.53
2018-12-17T15:11:45.772Z,42.87
2018-12-17T15:14:14.275Z,47.67
2018-12-17T15:16:42.755Z,43.93
2018-12-17T15:19:11.209Z,57.00
2018-12-17T15:24:32.890Z,56.63
2018-12-17T15:27:01.348Z,48.50
2018-12-17T15:29:29.762Z,45.67
2018-12-17T15:31:58.209Z,44.23
2018-12-17T15:34:26.762Z,41.63
2018-12-17T15:36:55.301Z,40.90
2018-12-17T15:39:23.960Z,62.57
2018-12-17T15:41:52.642Z,53.77
2018-12-17T15:44:21.091Z,48.40
2018-12-17T15:46:49.547Z,47.30
2018-12-17T15:49:17.951Z,40.03
2018-12-17T15:51:46.873Z,44.93
2018-12-17T15:57:07.760Z,41.03
2018-12-17T15:59:36.821Z,40.80
2018-12-17T16:02:05.450Z,47.87
2018-12-17T16:04:33.941Z,44.27
2018-12-17T16:07:02.401Z,44.10
2018-12-17T16:09:30.837Z,44.83
2018-12-17T16:11:59.286Z,42.30
2018-12-17T16:14:27.773Z,44.87
2018-12-17T16:16:56.248Z,44.57
2018-12-17T16:19:24.679Z,44.67
2018-12-17T16:21:53.240Z,44.00
2018-12-17T16:24:21.678Z,46.93
2018-12-17T16:26:50.238Z,51.83
2018-12-17T16:29:18.706Z,49.57
2018-12-17T16:31:47.329Z,45.17
2018-12-17T16:34:15.760Z,44.57
2018-12-17T16:36:44.500Z,45.37
2018-12-17T16:39:13.042Z,44.97
2018-12-17T16:41:41.499Z,43.10
2018-12-17T16:44:09.932Z,45.10
2018-12-17T16:46:40.568Z,45.70
2018-12-17T16:49:09.215Z,43.43
2018-12-17T16:51:37.732Z,49.80
2018-12-17T16:54:06.172Z,44.57
2018-12-17T16:56:34.602Z,42.70
2018-12-17T16:59:03.083Z,42.73
2018-12-17T17:01:31.630Z,45.63
2018-12-17T17:04:00.107Z,44.53
2018-12-17T17:06:28.648Z,46.40
2018-12-17T17:08:58.852Z,45.93
2018-12-17T17:11:27.767Z,45.20
2018-12-17T17:13:56.278Z,44.57
2018-12-17T17:16:24.765Z,47.97
2018-12-17T17:18:53.234Z,57.33
2018-12-17T17:21:21.869Z,50.97
2018-12-17T17:23:50.374Z,70.03
2018-12-17T17:26:18.835Z,50.93
2018-12-17T17:28:47.429Z,60.03
2018-12-17T17:31:15.987Z,45.97
2018-12-17T17:33:44.480Z,49.23
2018-12-17T17:36:12.938Z,52.77
2018-12-17T17:38:41.419Z,88.57
2018-12-17T17:41:09.911Z,51.50
2018-12-17T17:43:38.484Z,48.83
2018-12-17T17:46:06.921Z,44.73
2018-12-17T17:48:35.572Z,45.30
2018-12-17T17:51:04.168Z,72.53
2018-12-17T17:53:32.661Z,71.03
2018-12-17T17:56:01.108Z,46.17
2018-12-17T17:58:29.824Z,54.80
2018-12-17T18:00:58.387Z,45.07
2018-12-17T18:03:26.863Z,47.07
2018-12-17T18:05:55.349Z,54.27
2018-12-17T18:08:23.895Z,52.97
2018-12-17T18:10:52.343Z,57.53
2018-12-17T18:13:20.847Z,56.43
2018-12-17T18:15:49.310Z,44.93
2018-12-17T18:18:17.792Z,47.00
2018-12-17T18:20:46.239Z,46.63
2018-12-17T18:23:14.799Z,46.63
2018-12-17T18:25:43.260Z,46.80
2018-12-17T18:28:12.787Z,45.87
2018-12-17T18:30:41.293Z,49.23
2018-12-17T18:33:09.821Z,48.27
2018-12-17T18:35:38.275Z,46.60
2018-12-17T18:38:06.776Z,47.03
2018-12-17T18:40:35.342Z,51.07
2018-12-17T18:43:04.024Z,47.43
2018-12-17T18:45:33.098Z,47.53
2018-12-17T18:48:01.577Z,47.40
2018-12-17T18:50:30.298Z,46.23
2018-12-17T18:52:59.273Z,46.57
2018-12-17T18:55:27.773Z,44.37
2018-12-17T18:57:56.256Z,46.90
2018-12-17T19:00:24.975Z,45.97
2018-12-17T19:02:53.558Z,44.80
2018-12-17T19:05:22.091Z,45.03
2018-12-17T19:07:50.545Z,44.93
2018-12-17T19:10:19.097Z,46.47
2018-12-17T19:12:47.638Z,44.70
2018-12-17T19:15:16.108Z,43.53
2018-12-17T19:17:44.732Z,59.47
2018-12-17T19:20:13.313Z,48.63
2018-12-17T19:22:41.865Z,46.37
2018-12-17T19:25:10.399Z,46.50
2018-12-17T19:27:38.851Z,44.87
2018-12-17T19:30:08.309Z,44.43
2018-12-17T19:32:40.231Z,47.80
2018-12-17T19:35:07.370Z,49.60
2018-12-17T19:37:35.819Z,48.27
2018-12-17T19:40:05.026Z,45.90
2018-12-17T19:42:33.465Z,45.57
2018-12-17T19:45:01.956Z,47.23
2018-12-17T19:47:30.399Z,45.97
2018-12-17T19:49:58.892Z,44.43
2018-12-17T19:52:27.337Z,44.10
2018-12-17T19:54:55.957Z,45.77
2018-12-17T19:57:24.435Z,49.33
2018-12-17T19:59:52.924Z,46.63
2018-12-17T20:02:21.383Z,49.47
2018-12-17T20:04:49.877Z,48.83
2018-12-17T20:07:18.365Z,51.77
2018-12-17T20:09:46.863Z,52.47
2018-12-17T20:12:15.336Z,47.83
2018-12-17T20:14:43.841Z,51.30
2018-12-17T20:17:12.402Z,48.67
2018-12-17T20:19:40.897Z,50.20
2018-12-17T20:22:09.364Z,49.40
2018-12-17T20:24:37.869Z,51.63
2018-12-17T20:27:06.328Z,48.03
2018-12-17T20:29:34.833Z,46.37
2018-12-17T20:32:03.492Z,47.60
2018-12-17T20:34:31.973Z,48.60
2018-12-17T20:37:00.428Z,49.20
2018-12-17T20:39:28.956Z,49.87
2018-12-17T20:41:57.551Z,50.43
2018-12-17T20:44:26.053Z,49.93
2018-12-17T20:46:54.602Z,48.63
2018-12-17T20:49:23.093Z,52.00
2018-12-17T20:51:51.531Z,50.77
2018-12-17T20:54:20.068Z,53.00
2018-12-17T20:56:48.517Z,48.50
2018-12-17T20:59:17.079Z,48.23
2018-12-17T21:01:45.559Z,50.77
2018-12-17T21:04:14.052Z,50.40
2018-12-17T21:06:42.491Z,52.43
2018-12-17T21:09:10.952Z,50.60
2018-12-17T21:11:39.399Z,51.67
2018-12-17T21:14:07.892Z,52.43
2018-12-17T21:16:36.315Z,52.27
2018-12-17T21:19:04.829Z,51.83
2018-12-17T21:21:33.276Z,51.03
2018-12-17T21:24:01.776Z,49.67
2018-12-17T21:26:30.311Z,50.37
2018-12-17T21:28:58.791Z,48.83
2018-12-17T21:31:27.308Z,49.83
2018-12-17T21:33:55.823Z,50.47
2018-12-17T21:36:24.271Z,49.73
2018-12-17T21:38:52.789Z,49.23
2018-12-17T21:41:21.227Z,50.40
2018-12-17T21:43:49.679Z,51.33
2018-12-17T21:46:18.151Z,50.80
2018-12-17T21:48:46.658Z,50.23
2018-12-17T21:51:15.092Z,50.97
2018-12-17T21:53:43.547Z,48.33
2018-12-17T21:56:12.033Z,49.17
2018-12-17T21:58:40.507Z,49.47
2018-12-17T22:01:08.979Z,51.67
2018-12-17T22:03:37.475Z,51.30
2018-12-17T22:06:05.941Z,49.73
2018-12-17T22:08:34.390Z,49.53
2018-12-17T22:11:02.874Z,50.27
2018-12-17T22:13:31.355Z,48.43
2018-12-17T22:15:59.834Z,47.93
2018-12-17T22:18:28.360Z,48.80
2018-12-17T22:20:56.835Z,46.53
2018-12-17T22:23:25.317Z,47.33
2018-12-17T22:25:53.851Z,46.60
2018-12-17T22:28:22.306Z,45.73
2018-12-17T22:30:50.819Z,44.57
2018-12-17T22:33:19.979Z,43.60
2018-12-17T22:35:48.692Z,44.43
2018-12-17T22:38:17.143Z,42.17
2018-12-17T22:40:45.918Z,42.43
2018-12-17T22:43:14.441Z,42.87
2018-12-17T22:45:42.933Z,43.57
2018-12-17T22:48:11.368Z,46.73
2018-12-17T22:50:39.829Z,43.87
2018-12-17T22:53:08.275Z,44.77
2018-12-17T22:55:36.738Z,45.90
2018-12-17T22:58:05.196Z,44.00
2018-12-17T23:00:33.787Z,44.37
2018-12-17T23:03:02.238Z,45.90
2018-12-17T23:05:30.753Z,45.53
2018-12-17T23:07:59.198Z,44.07
2018-12-17T23:10:44.670Z,41.50
2018-12-17T23:13:24.371Z,41.67
2018-12-17T23:16:04.130Z,42.23
2018-12-17T23:18:31.515Z,42.63
2018-12-17T23:21:00.228Z,43.20
2018-12-17T23:23:29.054Z,40.67
2018-12-17T23:25:57.645Z,38.73
2018-12-17T23:28:26.212Z,41.27
2018-12-17T23:30:54.675Z,40.33
2018-12-17T23:33:23.244Z,41.13
2018-12-17T23:35:51.744Z,39.83
2018-12-17T23:38:20.205Z,39.47
2018-12-17T23:40:48.699Z,40.67
2018-12-17T23:43:17.266Z,43.97
2018-12-17T23:45:45.754Z,43.67
2018-12-17T23:48:14.213Z,41.40
2018-12-17T23:50:43.961Z,42.73
2018-12-17T23:53:12.420Z,41.67
2018-12-17T23:55:40.903Z,42.60
2018-12-17T23:58:09.334Z,43.20
